sensor_id;sensor_type;location;lat;lon;timestamp;pressure;altitude;pressure_sealevel;temperature;humidity
36284;BME280;56085;48.910;9.478;2022-11-15T00:01:09;97956.81;;;11.31;64.16
36284;BME280;56085;48.910;9.478;2022-11-15T00:03:36;97955.16;;;11.27;64.29
36284;BME280;56085;48.910;9.478;2022-11-15T00:06:03;97952.78;;;11.25;64.28
36284;BME280;56085;48.910;9.478;2022-11-15T00:08:30;97953.16;;;11.24;64.34
36284;BME280;56085;48.910;9.478;2022-11-15T00:10:56;97950.38;;;11.24;64.49
36284;BME280;56085;48.910;9.478;2022-11-15T00:13:22;97961.78;;;11.18;64.34
36284;BME280;56085;48.910;9.478;2022-11-15T00:15:48;97951.50;;;11.19;64.26
36284;BME280;56085;48.910;9.478;2022-11-15T00:18:14;97957.56;;;11.28;64.28
36284;BME280;56085;48.910;9.478;2022-11-15T00:20:40;97944.53;;;11.29;64.58
36284;BME280;56085;48.910;9.478;2022-11-15T00:23:06;97946.47;;;11.28;64.35
36284;BME280;56085;48.910;9.478;2022-11-15T00:25:32;97938.13;;;11.25;64.21
36284;BME280;56085;48.910;9.478;2022-11-15T00:27:58;97941.28;;;11.23;64.23
36284;BME280;56085;48.910;9.478;2022-11-15T00:30:25;97946.81;;;11.23;64.21
36284;BME280;56085;48.910;9.478;2022-11-15T00:32:51;97952.72;;;11.22;64.57
36284;BME280;56085;48.910;9.478;2022-11-15T00:35:16;97945.59;;;11.21;64.31
36284;BME280;56085;48.910;9.478;2022-11-15T00:37:41;97942.44;;;11.22;64.67
36284;BME280;56085;48.910;9.478;2022-11-15T00:40:08;97940.84;;;11.21;64.37
36284;BME280;56085;48.910;9.478;2022-11-15T00:42:33;97947.22;;;11.25;64.46
36284;BME280;56085;48.910;9.478;2022-11-15T00:44:58;97949.22;;;11.25;64.25
36284;BME280;56085;48.910;9.478;2022-11-15T00:47:24;97951.63;;;11.30;64.56
36284;BME280;56085;48.910;9.478;2022-11-15T00:49:49;97943.34;;;11.30;64.47
36284;BME280;56085;48.910;9.478;2022-11-15T00:52:14;97940.56;;;11.30;64.42
36284;BME280;56085;48.910;9.478;2022-11-15T00:54:40;97932.38;;;11.37;64.41
36284;BME280;56085;48.910;9.478;2022-11-15T00:57:05;97934.34;;;11.37;64.33
36284;BME280;56085;48.910;9.478;2022-11-15T00:59:30;97932.81;;;11.39;64.12
36284;BME280;56085;48.910;9.478;2022-11-15T01:01:56;97935.19;;;11.41;64.20
36284;BME280;56085;48.910;9.478;2022-11-15T01:04:21;97932.06;;;11.42;64.35
36284;BME280;56085;48.910;9.478;2022-11-15T01:06:46;97933.97;;;11.38;64.23
36284;BME280;56085;48.910;9.478;2022-11-15T01:09:12;97924.41;;;11.32;63.96
36284;BME280;56085;48.910;9.478;2022-11-15T01:11:39;97921.16;;;11.26;64.12
36284;BME280;56085;48.910;9.478;2022-11-15T01:14:04;97925.84;;;11.22;63.90
36284;BME280;56085;48.910;9.478;2022-11-15T01:16:29;97916.22;;;11.12;64.13
36284;BME280;56085;48.910;9.478;2022-11-15T01:18:55;97906.25;;;11.04;64.08
36284;BME280;56085;48.910;9.478;2022-11-15T01:21:20;97906.44;;;10.92;64.19
36284;BME280;56085;48.910;9.478;2022-11-15T01:23:45;97908.72;;;10.86;64.23
36284;BME280;56085;48.910;9.478;2022-11-15T01:26:13;97899.81;;;10.70;64.44
36284;BME280;56085;48.910;9.478;2022-11-15T01:28:40;97886.72;;;10.67;64.19
36284;BME280;56085;48.910;9.478;2022-11-15T01:31:10;97879.44;;;10.55;64.54
36284;BME280;56085;48.910;9.478;2022-11-15T01:33:36;97890.75;;;10.46;64.51
36284;BME280;56085;48.910;9.478;2022-11-15T01:36:12;97887.91;;;10.42;64.56
36284;BME280;56085;48.910;9.478;2022-11-15T01:38:37;97890.63;;;10.39;64.73
36284;BME280;56085;48.910;9.478;2022-11-15T01:41:04;97890.56;;;10.35;64.49
36284;BME280;56085;48.910;9.478;2022-11-15T01:43:34;97892.09;;;10.33;64.63
36284;BME280;56085;48.910;9.478;2022-11-15T01:46:04;97888.09;;;10.30;64.84
36284;BME280;56085;48.910;9.478;2022-11-15T01:48:35;97887.31;;;10.29;65.02
36284;BME280;56085;48.910;9.478;2022-11-15T01:51:03;97886.56;;;10.33;64.77
36284;BME280;56085;48.910;9.478;2022-11-15T01:53:32;97882.63;;;10.34;64.89
36284;BME280;56085;48.910;9.478;2022-11-15T01:56:02;97883.88;;;10.36;64.84
36284;BME280;56085;48.910;9.478;2022-11-15T01:58:29;97877.41;;;10.28;64.79
36284;BME280;56085;48.910;9.478;2022-11-15T02:00:56;97876.91;;;10.23;65.06
36284;BME280;56085;48.910;9.478;2022-11-15T02:03:25;97870.91;;;10.17;65.15
36284;BME280;56085;48.910;9.478;2022-11-15T02:05:52;97867.75;;;10.19;64.93
36284;BME280;56085;48.910;9.478;2022-11-15T02:08:18;97874.53;;;10.21;65.27
36284;BME280;56085;48.910;9.478;2022-11-15T02:10:47;97862.13;;;10.11;65.30
36284;BME280;56085;48.910;9.478;2022-11-15T02:13:14;97862.00;;;10.04;65.15
36284;BME280;56085;48.910;9.478;2022-11-15T02:16:03;97863.88;;;10.00;65.34
36284;BME280;56085;48.910;9.478;2022-11-15T02:18:39;97859.19;;;10.01;65.41
36284;BME280;56085;48.910;9.478;2022-11-15T02:21:14;97849.97;;;9.93;65.60
36284;BME280;56085;48.910;9.478;2022-11-15T02:24:08;97853.78;;;10.08;65.44
36284;BME280;56085;48.910;9.478;2022-11-15T02:32:33;97848.94;;;10.01;65.51
36284;BME280;56085;48.910;9.478;2022-11-15T02:35:11;97842.28;;;10.06;65.85
36284;BME280;56085;48.910;9.478;2022-11-15T02:38:29;97837.25;;;10.11;65.74
36284;BME280;56085;48.910;9.478;2022-11-15T02:41:03;97843.59;;;10.12;65.96
36284;BME280;56085;48.910;9.478;2022-11-15T02:43:40;97833.75;;;10.14;65.86
36284;BME280;56085;48.910;9.478;2022-11-15T02:46:28;97844.50;;;10.20;65.97
36284;BME280;56085;48.910;9.478;2022-11-15T02:49:15;97832.75;;;10.26;66.08
36284;BME280;56085;48.910;9.478;2022-11-15T02:51:42;97832.28;;;10.21;66.10
36284;BME280;56085;48.910;9.478;2022-11-15T02:54:19;97816.34;;;10.10;65.92
36284;BME280;56085;48.910;9.478;2022-11-15T02:56:45;97823.31;;;10.04;66.21
36284;BME280;56085;48.910;9.478;2022-11-15T02:59:17;97825.66;;;10.02;66.57
36284;BME280;56085;48.910;9.478;2022-11-15T03:04:52;97822.78;;;9.95;66.52
36284;BME280;56085;48.910;9.478;2022-11-15T03:07:24;97819.94;;;9.91;66.43
36284;BME280;56085;48.910;9.478;2022-11-15T03:10:02;97827.53;;;9.94;67.01
36284;BME280;56085;48.910;9.478;2022-11-15T03:12:37;97824.81;;;9.98;67.03
36284;BME280;56085;48.910;9.478;2022-11-15T03:15:18;97819.91;;;9.88;66.68
36284;BME280;56085;48.910;9.478;2022-11-15T03:18:01;97818.06;;;9.95;66.92
36284;BME280;56085;48.910;9.478;2022-11-15T03:20:27;97811.91;;;9.83;66.96
36284;BME280;56085;48.910;9.478;2022-11-15T03:22:55;97816.47;;;9.71;67.05
36284;BME280;56085;48.910;9.478;2022-11-15T03:25:24;97804.31;;;9.76;67.26
36284;BME280;56085;48.910;9.478;2022-11-15T03:27:52;97809.16;;;9.59;67.08
36284;BME280;56085;48.910;9.478;2022-11-15T03:30:19;97814.78;;;9.43;67.63
36284;BME280;56085;48.910;9.478;2022-11-15T03:32:49;97803.09;;;9.31;67.43
36284;BME280;56085;48.910;9.478;2022-11-15T03:35:19;97801.50;;;9.30;67.62
36284;BME280;56085;48.910;9.478;2022-11-15T03:38:00;97799.97;;;9.32;67.65
36284;BME280;56085;48.910;9.478;2022-11-15T03:40:40;97796.91;;;9.37;68.01
36284;BME280;56085;48.910;9.478;2022-11-15T03:43:34;97794.09;;;9.34;68.15
36284;BME280;56085;48.910;9.478;2022-11-15T03:46:06;97786.78;;;9.22;67.89
36284;BME280;56085;48.910;9.478;2022-11-15T03:48:54;97795.13;;;9.06;68.03
36284;BME280;56085;48.910;9.478;2022-11-15T03:51:21;97791.88;;;9.00;68.38
36284;BME280;56085;48.910;9.478;2022-11-15T03:53:47;97788.53;;;8.91;68.47
36284;BME280;56085;48.910;9.478;2022-11-15T03:56:12;97793.16;;;8.87;68.21
36284;BME280;56085;48.910;9.478;2022-11-15T03:58:38;97785.13;;;8.78;68.57
36284;BME280;56085;48.910;9.478;2022-11-15T04:01:03;97792.06;;;8.72;68.99
36284;BME280;56085;48.910;9.478;2022-11-15T04:03:28;97789.22;;;8.68;69.01
36284;BME280;56085;48.910;9.478;2022-11-15T04:05:54;97799.22;;;8.57;69.40
36284;BME280;56085;48.910;9.478;2022-11-15T04:08:19;97786.88;;;8.51;69.38
36284;BME280;56085;48.910;9.478;2022-11-15T04:10:44;97778.44;;;8.44;69.32
36284;BME280;56085;48.910;9.478;2022-11-15T04:13:09;97776.31;;;8.37;69.68
36284;BME280;56085;48.910;9.478;2022-11-15T04:15:35;97778.91;;;8.30;69.46
36284;BME280;56085;48.910;9.478;2022-11-15T04:18:01;97780.72;;;8.22;70.07
36284;BME280;56085;48.910;9.478;2022-11-15T04:20:30;97774.88;;;8.08;70.04
36284;BME280;56085;48.910;9.478;2022-11-15T04:23:22;97768.75;;;7.98;69.81
36284;BME280;56085;48.910;9.478;2022-11-15T04:26:09;97776.03;;;7.91;70.73
36284;BME280;56085;48.910;9.478;2022-11-15T04:28:36;97769.28;;;7.88;70.47
36284;BME280;56085;48.910;9.478;2022-11-15T04:31:21;97774.59;;;7.81;70.82
36284;BME280;56085;48.910;9.478;2022-11-15T04:33:47;97776.22;;;7.82;71.06
36284;BME280;56085;48.910;9.478;2022-11-15T04:36:12;97773.03;;;7.80;70.86
36284;BME280;56085;48.910;9.478;2022-11-15T04:38:56;97771.25;;;7.72;70.81
36284;BME280;56085;48.910;9.478;2022-11-15T04:41:21;97779.69;;;7.63;71.83
36284;BME280;56085;48.910;9.478;2022-11-15T04:43:46;97775.59;;;7.57;71.56
36284;BME280;56085;48.910;9.478;2022-11-15T04:46:12;97769.19;;;7.53;71.63
36284;BME280;56085;48.910;9.478;2022-11-15T04:48:37;97769.91;;;7.49;71.73
36284;BME280;56085;48.910;9.478;2022-11-15T04:51:03;97761.13;;;7.44;72.00
36284;BME280;56085;48.910;9.478;2022-11-15T04:53:28;97764.94;;;7.39;72.47
36284;BME280;56085;48.910;9.478;2022-11-15T04:55:53;97765.63;;;7.36;72.23
36284;BME280;56085;48.910;9.478;2022-11-15T04:58:19;97767.03;;;7.30;72.44
36284;BME280;56085;48.910;9.478;2022-11-15T05:00:44;97776.88;;;7.31;72.63
36284;BME280;56085;48.910;9.478;2022-11-15T05:03:09;97771.31;;;7.27;73.26
36284;BME280;56085;48.910;9.478;2022-11-15T05:05:53;97765.34;;;7.25;73.60
36284;BME280;56085;48.910;9.478;2022-11-15T05:08:19;97760.81;;;7.17;73.41
36284;BME280;56085;48.910;9.478;2022-11-15T05:10:44;97756.91;;;7.18;73.16
36284;BME280;56085;48.910;9.478;2022-11-15T05:13:10;97760.72;;;7.13;73.71
36284;BME280;56085;48.910;9.478;2022-11-15T05:15:35;97757.25;;;7.16;73.52
36284;BME280;56085;48.910;9.478;2022-11-15T05:18:00;97757.16;;;7.13;74.16
36284;BME280;56085;48.910;9.478;2022-11-15T05:20:26;97758.06;;;7.17;74.30
36284;BME280;56085;48.910;9.478;2022-11-15T05:22:53;97749.00;;;7.16;74.29
36284;BME280;56085;48.910;9.478;2022-11-15T05:25:19;97754.97;;;7.19;74.50
36284;BME280;56085;48.910;9.478;2022-11-15T05:27:44;97744.03;;;7.22;74.85
36284;BME280;56085;48.910;9.478;2022-11-15T05:30:09;97746.00;;;7.22;74.46
36284;BME280;56085;48.910;9.478;2022-11-15T05:32:35;97758.59;;;7.23;75.09
36284;BME280;56085;48.910;9.478;2022-11-15T05:35:02;97751.94;;;7.24;74.38
36284;BME280;56085;48.910;9.478;2022-11-15T05:37:30;97751.00;;;7.32;74.74
36284;BME280;56085;48.910;9.478;2022-11-15T05:39:55;97740.00;;;7.32;74.55
36284;BME280;56085;48.910;9.478;2022-11-15T05:42:21;97739.63;;;7.33;75.36
36284;BME280;56085;48.910;9.478;2022-11-15T05:44:48;97729.06;;;7.36;75.34
36284;BME280;56085;48.910;9.478;2022-11-15T05:47:18;97730.25;;;7.34;75.55
36284;BME280;56085;48.910;9.478;2022-11-15T05:49:47;97737.50;;;7.43;75.39
36284;BME280;56085;48.910;9.478;2022-11-15T05:52:15;97728.28;;;7.51;75.95
36284;BME280;56085;48.910;9.478;2022-11-15T05:54:41;97725.19;;;7.53;75.64
36284;BME280;56085;48.910;9.478;2022-11-15T05:57:07;97730.94;;;7.47;75.59
36284;BME280;56085;48.910;9.478;2022-11-15T05:59:33;97732.72;;;7.56;75.71
36284;BME280;56085;48.910;9.478;2022-11-15T06:01:59;97720.75;;;7.80;75.56
36284;BME280;56085;48.910;9.478;2022-11-15T06:04:25;97726.66;;;7.98;76.02
36284;BME280;56085;48.910;9.478;2022-11-15T06:06:50;97729.78;;;7.80;76.22
36284;BME280;56085;48.910;9.478;2022-11-15T06:09:15;97734.94;;;7.82;75.96
36284;BME280;56085;48.910;9.478;2022-11-15T06:11:41;97732.78;;;7.91;76.04
36284;BME280;56085;48.910;9.478;2022-11-15T06:14:06;97726.91;;;8.09;75.83
36284;BME280;56085;48.910;9.478;2022-11-15T06:16:31;97734.44;;;8.12;76.24
36284;BME280;56085;48.910;9.478;2022-11-15T06:18:57;97732.19;;;8.17;76.32
36284;BME280;56085;48.910;9.478;2022-11-15T06:21:22;97741.44;;;8.25;76.41
36284;BME280;56085;48.910;9.478;2022-11-15T06:23:48;97734.72;;;8.42;75.92
36284;BME280;56085;48.910;9.478;2022-11-15T06:26:13;97739.06;;;8.43;75.68
36284;BME280;56085;48.910;9.478;2022-11-15T06:28:38;97743.84;;;8.27;75.79
36284;BME280;56085;48.910;9.478;2022-11-15T06:31:05;97747.38;;;8.27;75.98
36284;BME280;56085;48.910;9.478;2022-11-15T06:33:30;97752.81;;;8.24;76.21
36284;BME280;56085;48.910;9.478;2022-11-15T06:36:00;97744.63;;;8.27;75.51
36284;BME280;56085;48.910;9.478;2022-11-15T06:38:26;97745.88;;;8.30;76.25
36284;BME280;56085;48.910;9.478;2022-11-15T06:40:51;97736.88;;;8.33;75.93
36284;BME280;56085;48.910;9.478;2022-11-15T06:43:16;97740.16;;;8.38;75.46
36284;BME280;56085;48.910;9.478;2022-11-15T06:45:42;97739.28;;;8.34;75.31
36284;BME280;56085;48.910;9.478;2022-11-15T06:48:07;97740.88;;;8.35;75.81
36284;BME280;56085;48.910;9.478;2022-11-15T06:50:32;97747.97;;;8.36;75.49
36284;BME280;56085;48.910;9.478;2022-11-15T06:53:02;97737.59;;;8.30;75.81
36284;BME280;56085;48.910;9.478;2022-11-15T06:55:28;97746.84;;;8.21;75.71
36284;BME280;56085;48.910;9.478;2022-11-15T06:57:53;97751.41;;;8.14;75.42
36284;BME280;56085;48.910;9.478;2022-11-15T07:00:20;97742.56;;;8.04;75.91
36284;BME280;56085;48.910;9.478;2022-11-15T07:02:47;97751.59;;;8.05;75.81
36284;BME280;56085;48.910;9.478;2022-11-15T07:05:13;97742.88;;;8.03;76.26
36284;BME280;56085;48.910;9.478;2022-11-15T07:07:39;97750.34;;;8.02;75.90
36284;BME280;56085;48.910;9.478;2022-11-15T07:10:05;97746.97;;;8.09;75.70
36284;BME280;56085;48.910;9.478;2022-11-15T07:12:31;97747.78;;;8.10;76.08
36284;BME280;56085;48.910;9.478;2022-11-15T07:14:56;97744.94;;;8.06;76.03
36284;BME280;56085;48.910;9.478;2022-11-15T07:17:21;97748.19;;;8.12;76.14
36284;BME280;56085;48.910;9.478;2022-11-15T07:19:47;97749.72;;;8.25;75.91
36284;BME280;56085;48.910;9.478;2022-11-15T07:22:12;97746.81;;;8.37;75.57
36284;BME280;56085;48.910;9.478;2022-11-15T07:24:37;97739.69;;;8.52;75.80
36284;BME280;56085;48.910;9.478;2022-11-15T07:27:03;97741.44;;;8.61;76.15
36284;BME280;56085;48.910;9.478;2022-11-15T07:29:28;97742.63;;;8.79;75.60
36284;BME280;56085;48.910;9.478;2022-11-15T07:31:53;97736.22;;;8.95;76.11
36284;BME280;56085;48.910;9.478;2022-11-15T07:34:19;97742.59;;;8.99;75.53
36284;BME280;56085;48.910;9.478;2022-11-15T07:36:44;97744.13;;;8.96;75.84
36284;BME280;56085;48.910;9.478;2022-11-15T07:39:10;97739.84;;;8.99;75.62
36284;BME280;56085;48.910;9.478;2022-11-15T07:41:37;97744.41;;;9.11;75.82
36284;BME280;56085;48.910;9.478;2022-11-15T07:44:03;97745.25;;;9.15;76.04
36284;BME280;56085;48.910;9.478;2022-11-15T07:46:29;97744.94;;;9.20;75.64
36284;BME280;56085;48.910;9.478;2022-11-15T07:48:54;97743.00;;;9.20;75.98
36284;BME280;56085;48.910;9.478;2022-11-15T07:51:19;97744.66;;;9.25;75.58
36284;BME280;56085;48.910;9.478;2022-11-15T07:53:45;97748.69;;;9.51;75.42
36284;BME280;56085;48.910;9.478;2022-11-15T07:56:11;97736.72;;;9.66;75.27
36284;BME280;56085;48.910;9.478;2022-11-15T07:58:36;97747.44;;;9.71;75.56
36284;BME280;56085;48.910;9.478;2022-11-15T08:01:06;97743.22;;;9.77;75.63
36284;BME280;56085;48.910;9.478;2022-11-15T08:03:32;97742.59;;;9.88;75.10
36284;BME280;56085;48.910;9.478;2022-11-15T08:05:57;97737.56;;;9.93;75.31
36284;BME280;56085;48.910;9.478;2022-11-15T08:08:22;97744.41;;;10.03;75.12
36284;BME280;56085;48.910;9.478;2022-11-15T08:10:48;97733.63;;;10.21;75.43
36284;BME280;56085;48.910;9.478;2022-11-15T08:13:13;97723.19;;;10.34;75.54
36284;BME280;56085;48.910;9.478;2022-11-15T08:15:39;97728.91;;;10.48;75.18
36284;BME280;56085;48.910;9.478;2022-11-15T08:18:06;97726.69;;;10.61;75.17
36284;BME280;56085;48.910;9.478;2022-11-15T08:20:33;97720.84;;;10.67;74.95
36284;BME280;56085;48.910;9.478;2022-11-15T08:23:01;97730.16;;;10.85;75.01
36284;BME280;56085;48.910;9.478;2022-11-15T08:25:28;97721.13;;;10.92;74.80
36284;BME280;56085;48.910;9.478;2022-11-15T08:27:55;97732.63;;;10.94;74.64
36284;BME280;56085;48.910;9.478;2022-11-15T08:30:21;97716.22;;;11.12;74.68
36284;BME280;56085;48.910;9.478;2022-11-15T08:32:48;97717.06;;;11.16;74.72
36284;BME280;56085;48.910;9.478;2022-11-15T08:35:14;97714.91;;;11.40;74.33
36284;BME280;56085;48.910;9.478;2022-11-15T08:37:39;97716.16;;;11.46;74.19
36284;BME280;56085;48.910;9.478;2022-11-15T08:40:05;97708.84;;;11.68;74.42
36284;BME280;56085;48.910;9.478;2022-11-15T08:42:31;97717.00;;;11.95;74.47
36284;BME280;56085;48.910;9.478;2022-11-15T08:44:56;97710.03;;;12.15;74.36
36284;BME280;56085;48.910;9.478;2022-11-15T08:47:22;97708.16;;;12.34;74.18
36284;BME280;56085;48.910;9.478;2022-11-15T08:49:47;97697.97;;;12.56;73.99
36284;BME280;56085;48.910;9.478;2022-11-15T08:52:13;97697.66;;;12.72;74.08
36284;BME280;56085;48.910;9.478;2022-11-15T08:54:39;97697.66;;;12.75;74.00
36284;BME280;56085;48.910;9.478;2022-11-15T08:57:04;97693.69;;;12.77;73.96
36284;BME280;56085;48.910;9.478;2022-11-15T08:59:29;97690.47;;;12.67;73.61
36284;BME280;56085;48.910;9.478;2022-11-15T09:01:54;97686.84;;;12.49;73.34
36284;BME280;56085;48.910;9.478;2022-11-15T09:04:20;97687.97;;;12.37;73.59
36284;BME280;56085;48.910;9.478;2022-11-15T09:06:45;97686.38;;;12.36;73.11
36284;BME280;56085;48.910;9.478;2022-11-15T09:09:10;97695.91;;;12.42;73.01
36284;BME280;56085;48.910;9.478;2022-11-15T09:11:36;97685.69;;;12.57;73.14
36284;BME280;56085;48.910;9.478;2022-11-15T09:14:01;97684.97;;;12.78;73.04
36284;BME280;56085;48.910;9.478;2022-11-15T09:16:26;97677.13;;;13.09;72.83
36284;BME280;56085;48.910;9.478;2022-11-15T09:18:52;97681.19;;;13.37;72.57
36284;BME280;56085;48.910;9.478;2022-11-15T09:21:18;97675.25;;;13.67;72.58
36284;BME280;56085;48.910;9.478;2022-11-15T09:23:44;97667.69;;;13.82;71.81
36284;BME280;56085;48.910;9.478;2022-11-15T09:26:09;97668.06;;;13.91;71.83
36284;BME280;56085;48.910;9.478;2022-11-15T09:28:35;97666.91;;;14.03;71.80
36284;BME280;56085;48.910;9.478;2022-11-15T09:31:04;97662.09;;;14.25;71.62
36284;BME280;56085;48.910;9.478;2022-11-15T09:33:29;97652.50;;;14.34;70.71
36284;BME280;56085;48.910;9.478;2022-11-15T09:36:00;97667.97;;;14.38;70.53
36284;BME280;56085;48.910;9.478;2022-11-15T09:38:26;97660.00;;;14.51;70.53
36284;BME280;56085;48.910;9.478;2022-11-15T09:41:05;97651.63;;;14.58;70.14
36284;BME280;56085;48.910;9.478;2022-11-15T09:49:25;97652.69;;;14.93;68.53
36284;BME280;56085;48.910;9.478;2022-11-15T09:51:53;97647.44;;;15.06;68.27
36284;BME280;56085;48.910;9.478;2022-11-15T09:54:28;97647.72;;;15.26;67.94
36284;BME280;56085;48.910;9.478;2022-11-15T09:56:57;97648.00;;;15.43;67.52
36284;BME280;56085;48.910;9.478;2022-11-15T09:59:51;97637.16;;;15.52;67.44
36284;BME280;56085;48.910;9.478;2022-11-15T10:04:59;97636.97;;;15.74;67.18
36284;BME280;56085;48.910;9.478;2022-11-15T10:08:04;97647.91;;;16.02;66.54
36284;BME280;56085;48.910;9.478;2022-11-15T10:11:01;97640.38;;;15.99;66.37
36284;BME280;56085;48.910;9.478;2022-11-15T10:13:32;97645.03;;;16.10;66.21
36284;BME280;56085;48.910;9.478;2022-11-15T10:24:27;97623.19;;;17.04;64.61
36284;BME280;56085;48.910;9.478;2022-11-15T10:26:55;97617.16;;;17.33;64.29
36284;BME280;56085;48.910;9.478;2022-11-15T10:29:23;97616.91;;;17.48;63.71
36284;BME280;56085;48.910;9.478;2022-11-15T10:31:48;97607.41;;;17.45;63.53
36284;BME280;56085;48.910;9.478;2022-11-15T10:34:20;97606.25;;;17.15;62.87
36284;BME280;56085;48.910;9.478;2022-11-15T10:36:57;97609.59;;;17.06;62.82
36284;BME280;56085;48.910;9.478;2022-11-15T10:39:23;97600.19;;;16.93;62.47
36284;BME280;56085;48.910;9.478;2022-11-15T10:41:49;97599.31;;;17.00;62.26
36284;BME280;56085;48.910;9.478;2022-11-15T10:44:31;97596.66;;;16.89;62.01
36284;BME280;56085;48.910;9.478;2022-11-15T10:49:24;97591.09;;;16.89;61.72
36284;BME280;56085;48.910;9.478;2022-11-15T10:52:12;97586.69;;;16.88;61.51
36284;BME280;56085;48.910;9.478;2022-11-15T10:57:18;97575.81;;;16.97;60.92
36284;BME280;56085;48.910;9.478;2022-11-15T10:59:47;97575.22;;;16.82;61.04
36284;BME280;56085;48.910;9.478;2022-11-15T11:02:56;97567.47;;;16.66;61.13
36284;BME280;56085;48.910;9.478;2022-11-15T11:05:32;97570.69;;;16.61;61.13
36284;BME280;56085;48.910;9.478;2022-11-15T11:08:20;97568.44;;;16.52;61.06
36284;BME280;56085;48.910;9.478;2022-11-15T11:10:53;97558.63;;;16.40;60.90
36284;BME280;56085;48.910;9.478;2022-11-15T11:13:24;97567.16;;;16.26;61.05
36284;BME280;56085;48.910;9.478;2022-11-15T11:18:34;97562.50;;;16.16;60.76
36284;BME280;56085;48.910;9.478;2022-11-15T11:21:08;97554.19;;;16.12;60.81
36284;BME280;56085;48.910;9.478;2022-11-15T11:23:53;97559.13;;;15.97;61.00
36284;BME280;56085;48.910;9.478;2022-11-15T11:26:41;97565.16;;;15.92;60.80
36284;BME280;56085;48.910;9.478;2022-11-15T11:29:31;97553.69;;;15.86;60.90
36284;BME280;56085;48.910;9.478;2022-11-15T11:32:13;97555.69;;;15.86;60.94
36284;BME280;56085;48.910;9.478;2022-11-15T11:37:39;97551.34;;;15.81;61.05
36284;BME280;56085;48.910;9.478;2022-11-15T11:40:19;97562.91;;;15.80;61.12
36284;BME280;56085;48.910;9.478;2022-11-15T11:43:18;97558.47;;;15.86;61.16
36284;BME280;56085;48.910;9.478;2022-11-15T11:46:05;97555.91;;;16.02;61.15
36284;BME280;56085;48.910;9.478;2022-11-15T11:48:41;97553.72;;;16.17;61.38
36284;BME280;56085;48.910;9.478;2022-11-15T11:51:24;97550.41;;;16.30;61.41
36284;BME280;56085;48.910;9.478;2022-11-15T11:54:13;97549.88;;;16.38;61.22
36284;BME280;56085;48.910;9.478;2022-11-15T11:56:43;97548.81;;;16.60;60.95
36284;BME280;56085;48.910;9.478;2022-11-15T12:01:45;97532.53;;;17.56;60.84
36284;BME280;56085;48.910;9.478;2022-11-15T12:04:38;97524.16;;;17.33;60.55
36284;BME280;56085;48.910;9.478;2022-11-15T12:07:08;97516.75;;;17.22;60.66
36284;BME280;56085;48.910;9.478;2022-11-15T12:09:42;97514.94;;;17.12;60.44
36284;BME280;56085;48.910;9.478;2022-11-15T12:14:55;97502.00;;;16.98;60.29
36284;BME280;56085;48.910;9.478;2022-11-15T12:17:28;97505.03;;;17.07;60.14
36284;BME280;56085;48.910;9.478;2022-11-15T12:20:05;97501.63;;;17.20;60.03
36284;BME280;56085;48.910;9.478;2022-11-15T12:22:46;97491.50;;;17.30;60.03
36284;BME280;56085;48.910;9.478;2022-11-15T12:27:55;97510.34;;;19.02;60.01
36284;BME280;56085;48.910;9.478;2022-11-15T12:30:22;97502.13;;;21.71;59.66
36284;BME280;56085;48.910;9.478;2022-11-15T12:33:00;97492.84;;;22.27;59.00
36284;BME280;56085;48.910;9.478;2022-11-15T12:35:42;97482.16;;;23.16;58.04
36284;BME280;56085;48.910;9.478;2022-11-15T12:38:12;97471.66;;;22.36;57.10
36284;BME280;56085;48.910;9.478;2022-11-15T12:41:11;97452.81;;;21.44;56.45
36284;BME280;56085;48.910;9.478;2022-11-15T12:43:38;97460.25;;;20.38;55.75
36284;BME280;56085;48.910;9.478;2022-11-15T12:46:05;97463.28;;;19.60;55.30
36284;BME280;56085;48.910;9.478;2022-11-15T12:51:00;97473.63;;;18.80;54.65
36284;BME280;56085;48.910;9.478;2022-11-15T12:53:28;97470.53;;;18.42;54.42
36284;BME280;56085;48.910;9.478;2022-11-15T12:58:51;97463.22;;;17.48;53.92
36284;BME280;56085;48.910;9.478;2022-11-15T13:06:56;97461.44;;;16.63;53.89
36284;BME280;56085;48.910;9.478;2022-11-15T13:11:54;97459.59;;;16.52;53.61
36284;BME280;56085;48.910;9.478;2022-11-15T13:14:59;97462.06;;;16.47;53.79
36284;BME280;56085;48.910;9.478;2022-11-15T13:17:31;97445.44;;;16.39;53.83
36284;BME280;56085;48.910;9.478;2022-11-15T13:20:17;97452.38;;;16.28;53.67
36284;BME280;56085;48.910;9.478;2022-11-15T13:22:50;97446.34;;;16.33;53.56
36284;BME280;56085;48.910;9.478;2022-11-15T13:25:26;97451.97;;;16.29;53.82
36284;BME280;56085;48.910;9.478;2022-11-15T13:27:52;97444.88;;;16.25;53.89
36284;BME280;56085;48.910;9.478;2022-11-15T13:30:22;97441.28;;;16.24;53.83
36284;BME280;56085;48.910;9.478;2022-11-15T13:32:48;97427.38;;;16.20;53.96
36284;BME280;56085;48.910;9.478;2022-11-15T13:35:29;97427.06;;;16.15;53.88
36284;BME280;56085;48.910;9.478;2022-11-15T13:37:56;97422.84;;;16.03;53.94
36284;BME280;56085;48.910;9.478;2022-11-15T13:40:27;97412.53;;;16.00;53.99
36284;BME280;56085;48.910;9.478;2022-11-15T13:42:56;97415.72;;;16.02;53.98
36284;BME280;56085;48.910;9.478;2022-11-15T13:45:21;97407.81;;;15.97;54.03
36284;BME280;56085;48.910;9.478;2022-11-15T13:48:05;97399.00;;;15.98;53.89
36284;BME280;56085;48.910;9.478;2022-11-15T13:50:34;97405.59;;;15.84;53.83
36284;BME280;56085;48.910;9.478;2022-11-15T13:53:03;97400.84;;;15.81;53.85
36284;BME280;56085;48.910;9.478;2022-11-15T13:55:31;97407.22;;;15.82;53.93
36284;BME280;56085;48.910;9.478;2022-11-15T13:58:03;97406.81;;;15.80;53.75
36284;BME280;56085;48.910;9.478;2022-11-15T14:00:38;97403.31;;;15.72;53.92
36284;BME280;56085;48.910;9.478;2022-11-15T14:05:33;97384.19;;;15.74;53.97
36284;BME280;56085;48.910;9.478;2022-11-15T14:08:02;97381.81;;;15.73;53.93
36284;BME280;56085;48.910;9.478;2022-11-15T14:10:33;97385.84;;;15.68;53.68
36284;BME280;56085;48.910;9.478;2022-11-15T14:12:59;97384.47;;;15.52;53.46
36284;BME280;56085;48.910;9.478;2022-11-15T14:15:29;97385.75;;;15.44;53.53
36284;BME280;56085;48.910;9.478;2022-11-15T14:17:55;97387.34;;;15.42;53.32
36284;BME280;56085;48.910;9.478;2022-11-15T14:20:28;97373.06;;;15.40;53.69